createdAt,value
2023-05-01T00:01:52.695Z,100807.23
2023-05-01T00:04:21.984Z,100808.41
2023-05-01T00:06:49.411Z,100811.06
2023-05-01T00:09:16.655Z,100812.84
2023-05-01T00:11:43.818Z,100809.87
2023-05-01T00:14:10.880Z,100812.31
2023-05-01T00:16:38.199Z,100812.00
2023-05-01T00:19:05.409Z,100811.19
2023-05-01T00:21:32.626Z,100812.21
2023-05-01T00:23:59.786Z,100808.59
2023-05-01T00:26:30.615Z,100805.15
2023-05-01T00:28:58.488Z,100807.11
2023-05-01T00:31:26.102Z,100808.72
2023-05-01T00:33:54.004Z,100806.41
2023-05-01T00:36:21.138Z,100801.88
2023-05-01T00:38:48.337Z,100802.23
2023-05-01T00:41:15.480Z,100804.65
2023-05-01T00:43:42.575Z,100802.20
2023-05-01T00:46:11.336Z,100804.25
2023-05-01T00:48:38.592Z,100804.73
2023-05-01T00:51:07.560Z,100802.81
2023-05-01T00:53:34.763Z,100801.25
2023-05-01T00:56:02.120Z,100806.56
2023-05-01T00:58:29.894Z,100805.92
2023-05-01T01:00:57.484Z,100801.58
2023-05-01T01:03:24.775Z,100800.61
2023-05-01T01:05:57.581Z,100801.49
2023-05-01T01:08:33.808Z,100804.15
2023-05-01T01:11:08.542Z,100803.70
2023-05-01T01:13:46.349Z,100801.59
2023-05-01T01:16:23.478Z,100793.27
2023-05-01T01:19:02.650Z,100796.96
2023-05-01T01:21:38.397Z,100795.23
2023-05-01T01:24:24.610Z,100795.10
2023-05-01T01:27:25.866Z,100796.46
2023-05-01T01:30:17.346Z,100791.25
2023-05-01T01:33:09.604Z,100790.54
2023-05-01T01:35:39.146Z,100788.75
2023-05-01T01:38:15.344Z,100789.88
2023-05-01T01:40:55.472Z,100788.48
2023-05-01T01:43:24.903Z,100787.48
2023-05-01T01:46:00.791Z,100787.48
2023-05-01T01:48:33.693Z,100785.11
2023-05-01T01:51:06.788Z,100786.45
2023-05-01T01:53:37.724Z,100787.38
2023-05-01T01:56:07.292Z,100784.17
2023-05-01T01:58:37.425Z,100787.39
2023-05-01T02:01:06.575Z,100785.95
2023-05-01T02:03:35.225Z,100782.98
2023-05-01T02:06:05.362Z,100782.27
2023-05-01T02:08:35.634Z,100783.16
2023-05-01T02:11:05.572Z,100777.31
2023-05-01T02:13:36.509Z,100783.27
2023-05-01T02:16:05.302Z,100779.36
2023-05-01T02:18:33.910Z,100779.18
2023-05-01T02:21:03.604Z,100771.70
2023-05-01T02:23:37.094Z,100769.20
2023-05-01T02:26:05.434Z,100767.92
2023-05-01T02:28:34.855Z,100764.04
2023-05-01T02:31:02.230Z,100760.17
2023-05-01T02:33:29.533Z,100759.07
2023-05-01T02:35:57.975Z,100758.56
2023-05-01T02:38:25.606Z,100759.67
2023-05-01T02:40:57.711Z,100761.73
2023-05-01T02:43:27.040Z,100758.13
2023-05-01T02:45:55.196Z,100758.50
2023-05-01T02:48:28.232Z,100756.80
2023-05-01T02:50:57.358Z,100758.35
2023-05-01T02:53:24.459Z,100757.80
2023-05-01T02:55:55.691Z,100758.79
2023-05-01T02:58:23.662Z,100759.17
2023-05-01T03:00:50.949Z,100757.57
2023-05-01T03:03:19.047Z,100762.80
2023-05-01T03:05:46.291Z,100760.51
2023-05-01T03:08:13.598Z,100760.88
2023-05-01T03:10:43.156Z,100763.04
2023-05-01T03:13:13.703Z,100761.24
2023-05-01T03:15:41.421Z,100757.19
2023-05-01T03:18:08.634Z,100755.23
2023-05-01T03:20:35.889Z,100756.61
2023-05-01T03:23:03.520Z,100758.34
2023-05-01T03:25:30.782Z,100759.80
2023-05-01T03:27:57.962Z,100763.56
2023-05-01T03:30:25.438Z,100760.61
2023-05-01T03:32:53.274Z,100763.91
2023-05-01T03:35:23.853Z,100764.07
2023-05-01T03:37:51.013Z,100761.95
2023-05-01T03:40:40.888Z,100767.38
2023-05-01T03:43:36.839Z,100767.83
2023-05-01T03:46:07.956Z,100766.55
2023-05-01T03:48:35.143Z,100768.70
2023-05-01T03:51:02.644Z,100770.54
2023-05-01T03:53:30.057Z,100770.06
2023-05-01T03:55:58.384Z,100768.59
2023-05-01T03:58:25.568Z,100768.70
2023-05-01T04:00:57.045Z,100768.28
2023-05-01T04:03:24.681Z,100767.73
2023-05-01T04:05:53.102Z,100769.31
2023-05-01T04:08:20.385Z,100770.72
2023-05-01T04:10:47.511Z,100772.67
2023-05-01T04:13:14.684Z,100774.85
2023-05-01T04:15:46.007Z,100772.75
2023-05-01T04:18:13.605Z,100775.41
2023-05-01T04:20:40.819Z,100773.21
2023-05-01T04:23:09.659Z,100767.90
2023-05-01T04:25:37.488Z,100769.92
2023-05-01T04:28:12.993Z,100764.29
2023-05-01T04:30:40.452Z,100769.39
2023-05-01T04:33:11.698Z,100765.55
2023-05-01T04:35:39.775Z,100762.61
2023-05-01T04:38:07.720Z,100761.02
2023-05-01T04:40:34.969Z,100764.50
2023-05-01T04:43:02.041Z,100764.13
2023-05-01T04:45:29.319Z,100763.02
2023-05-01T04:47:56.916Z,100760.08
2023-05-01T04:50:24.681Z,100763.98
2023-05-01T04:52:52.500Z,100760.42
2023-05-01T04:55:20.024Z,100761.48
2023-05-01T04:58:04.964Z,100757.88
2023-05-01T05:00:33.006Z,100755.79
2023-05-01T05:03:01.092Z,100761.37
2023-05-01T05:05:28.729Z,100759.61
2023-05-01T05:07:55.822Z,100755.35
2023-05-01T05:10:35.951Z,100755.45
2023-05-01T05:13:25.143Z,100755.29
2023-05-01T05:15:58.381Z,100752.84
2023-05-01T05:18:26.453Z,100752.59
2023-05-01T05:20:53.664Z,100752.39
2023-05-01T05:23:21.562Z,100754.52
2023-05-01T05:25:48.815Z,100754.83
2023-05-01T05:28:16.314Z,100756.99
2023-05-01T05:30:43.621Z,100763.21
2023-05-01T05:33:13.519Z,100760.64
2023-05-01T05:35:41.149Z,100758.77
2023-05-01T05:38:09.082Z,100760.44
2023-05-01T05:40:37.740Z,100757.74
2023-05-01T05:43:05.282Z,100756.98
2023-05-01T05:45:36.266Z,100757.67
2023-05-01T05:48:04.593Z,100751.02
2023-05-01T05:50:33.527Z,100750.88
2023-05-01T05:53:01.079Z,100751.27
2023-05-01T05:55:28.414Z,100751.61
2023-05-01T05:58:01.766Z,100750.77
2023-05-01T06:00:29.276Z,100754.67
2023-05-01T06:02:57.575Z,100758.05
2023-05-01T06:05:26.065Z,100758.09
2023-05-01T06:07:53.306Z,100756.53
2023-05-01T06:10:21.891Z,100760.98
2023-05-01T06:12:54.620Z,100762.75
2023-05-01T06:15:40.307Z,100760.42
2023-05-01T06:18:08.113Z,100762.92
2023-05-01T06:20:35.561Z,100766.95
2023-05-01T06:23:02.764Z,100763.64
2023-05-01T06:25:39.460Z,100763.57
2023-05-01T06:28:06.667Z,100765.37
2023-05-01T06:30:34.209Z,100766.20
2023-05-01T06:33:02.370Z,100771.54
2023-05-01T06:35:29.803Z,100763.61
2023-05-01T06:37:56.975Z,100764.63
2023-05-01T06:40:24.109Z,100764.01
2023-05-01T06:42:52.093Z,100762.61
2023-05-01T06:45:19.309Z,100758.80
2023-05-01T06:47:46.468Z,100753.22
2023-05-01T06:50:14.044Z,100750.98
2023-05-01T06:52:42.111Z,100753.92
2023-05-01T06:55:09.644Z,100748.64
2023-05-01T06:57:36.968Z,100748.20
2023-05-01T07:00:04.599Z,100745.25
2023-05-01T07:02:31.893Z,100745.20
2023-05-01T07:04:59.787Z,100743.04
2023-05-01T07:07:26.939Z,100740.27
2023-05-01T07:09:54.512Z,100738.48
2023-05-01T07:12:23.399Z,100733.69
2023-05-01T07:14:50.540Z,100731.54
2023-05-01T07:17:17.585Z,100732.82
2023-05-01T07:19:44.813Z,100728.79
2023-05-01T07:22:12.478Z,100722.83
2023-05-01T07:24:39.723Z,100723.85
2023-05-01T07:27:06.849Z,100724.09
2023-05-01T07:29:37.054Z,100722.52
2023-05-01T07:32:06.117Z,100725.45
2023-05-01T07:34:33.369Z,100723.77
2023-05-01T07:37:00.520Z,100722.70
2023-05-01T07:39:27.745Z,100723.73
2023-05-01T07:41:57.067Z,100723.09
2023-05-01T07:44:24.225Z,100723.60
2023-05-01T07:46:51.378Z,100723.30
2023-05-01T07:49:18.474Z,100718.13
2023-05-01T07:51:45.681Z,100718.63
2023-05-01T07:54:15.035Z,100721.13
2023-05-01T07:56:42.121Z,100720.44
2023-05-01T07:59:09.149Z,100720.53
2023-05-01T08:01:36.628Z,100718.15
2023-05-01T08:04:03.967Z,100716.15
2023-05-01T08:06:32.234Z,100713.68
2023-05-01T08:08:59.369Z,100711.68
2023-05-01T08:11:27.238Z,100710.06
2023-05-01T08:13:54.378Z,100711.53
2023-05-01T08:16:22.307Z,100709.70
2023-05-01T08:18:49.439Z,100707.44
2023-05-01T08:21:16.759Z,100706.86
2023-05-01T08:23:43.889Z,100702.10
2023-05-01T08:26:11.058Z,100699.35
2023-05-01T08:28:38.238Z,100695.67
2023-05-01T08:31:05.489Z,100698.91
2023-05-01T08:33:32.664Z,100698.32
2023-05-01T08:35:59.747Z,100693.31
2023-05-01T08:38:26.946Z,100694.73
2023-05-01T08:40:54.488Z,100696.73
2023-05-01T08:43:21.958Z,100689.52
2023-05-01T08:45:51.337Z,100694.08
2023-05-01T08:48:20.406Z,100690.02
2023-05-01T08:50:48.168Z,100691.00
2023-05-01T08:53:21.131Z,100693.97
2023-05-01T08:55:50.817Z,100690.63
2023-05-01T08:58:20.337Z,100697.48
2023-05-01T09:00:48.558Z,100691.12
2023-05-01T09:03:17.664Z,100686.54
2023-05-01T09:05:45.635Z,100683.96
2023-05-01T09:08:12.921Z,100686.98
2023-05-01T09:10:44.591Z,100679.31
2023-05-01T09:13:12.758Z,100676.48
2023-05-01T09:15:39.948Z,100674.20
2023-05-01T09:18:09.104Z,100675.92
2023-05-01T09:20:37.627Z,100674.70
2023-05-01T09:23:05.300Z,100671.80
2023-05-01T09:25:32.477Z,100668.69
2023-05-01T09:27:59.512Z,100665.68
2023-05-01T09:30:34.326Z,100665.48
2023-05-01T09:33:19.652Z,100662.46
2023-05-01T09:35:49.653Z,100656.69
2023-05-01T09:38:23.396Z,100657.77
2023-05-01T09:40:51.099Z,100655.20
2023-05-01T09:43:28.590Z,100653.21
2023-05-01T09:46:07.350Z,100654.36
2023-05-01T09:48:36.019Z,100650.80
2023-05-01T09:51:27.722Z,100654.82
2023-05-01T09:53:56.918Z,100649.81
2023-05-01T09:56:25.753Z,100649.94
2023-05-01T09:58:54.689Z,100646.47
2023-05-01T10:01:44.068Z,100637.21
2023-05-01T10:04:11.801Z,100639.71
2023-05-01T10:06:40.401Z,100635.83
2023-05-01T10:09:10.928Z,100632.55
2023-05-01T10:11:52.518Z,100630.52
2023-05-01T10:14:20.503Z,100626.33
2023-05-01T10:16:47.664Z,100625.05
2023-05-01T10:19:16.965Z,100619.94
2023-05-01T10:21:44.224Z,100621.64
2023-05-01T10:24:11.406Z,100616.91
2023-05-01T10:26:38.646Z,100606.40
2023-05-01T10:29:06.066Z,100603.70
2023-05-01T10:31:33.684Z,100600.98
2023-05-01T10:34:02.085Z,100599.22
2023-05-01T10:36:43.062Z,100592.83
2023-05-01T10:39:36.121Z,100586.39
2023-05-01T10:42:06.382Z,100584.08
2023-05-01T10:44:35.179Z,100579.58
2023-05-01T10:47:25.585Z,100580.86
2023-05-01T10:50:12.337Z,100581.79
2023-05-01T10:53:14.615Z,100573.77
2023-05-01T10:55:43.968Z,100571.93
2023-05-01T10:58:34.148Z,100569.91
2023-05-01T11:01:40.746Z,100570.80
2023-05-01T11:04:28.223Z,100564.55
2023-05-01T11:07:17.889Z,100561.64
2023-05-01T11:09:55.349Z,100559.27
2023-05-01T11:12:44.893Z,100552.05
2023-05-01T11:15:29.309Z,100554.00
2023-05-01T11:17:59.763Z,100548.07
2023-05-01T11:20:26.959Z,100544.46
2023-05-01T11:22:55.857Z,100536.76
2023-05-01T11:25:27.903Z,100538.08
2023-05-01T11:27:56.747Z,100538.98
2023-05-01T11:30:24.256Z,100531.80
2023-05-01T11:32:52.247Z,100531.56
2023-05-01T11:35:21.008Z,100529.48
2023-05-01T11:37:49.126Z,100528.15
2023-05-01T11:40:34.464Z,100528.99
2023-05-01T11:43:08.463Z,100526.73
2023-05-01T11:45:37.464Z,100523.20
2023-05-01T11:48:05.554Z,100519.40
2023-05-01T11:50:35.839Z,100510.54
2023-05-01T11:53:04.701Z,100510.48
2023-05-01T11:55:33.777Z,100506.50
2023-05-01T11:58:01.545Z,100506.85
2023-05-01T12:00:40.011Z,100501.21
2023-05-01T12:03:10.294Z,100499.64
2023-05-01T12:05:39.512Z,100497.83
2023-05-01T12:08:09.959Z,100488.61
2023-05-01T12:10:38.188Z,100490.52
2023-05-01T12:13:07.014Z,100490.57
2023-05-01T12:15:39.763Z,100487.47
2023-05-01T12:18:07.643Z,100483.61
2023-05-01T12:20:44.493Z,100478.14
2023-05-01T12:23:13.432Z,100473.56
2023-05-01T12:25:41.256Z,100471.13
2023-05-01T12:28:15.732Z,100466.42
2023-05-01T12:30:45.269Z,100464.85
2023-05-01T12:33:14.538Z,100457.75
2023-05-01T12:35:45.312Z,100454.27
2023-05-01T12:38:18.487Z,100455.13
2023-05-01T12:40:58.634Z,100454.61
2023-05-01T12:43:34.618Z,100454.29
2023-05-01T12:46:03.337Z,100448.32
2023-05-01T12:48:31.875Z,100448.96
2023-05-01T12:50:59.069Z,100443.72
2023-05-01T12:53:28.505Z,100442.97
2023-05-01T12:55:57.439Z,100440.60
2023-05-01T12:58:35.231Z,100437.14
2023-05-01T13:01:02.613Z,100433.65
2023-05-01T13:03:30.961Z,100424.54
2023-05-01T13:06:06.057Z,100432.95
2023-05-01T13:08:36.869Z,100432.14
2023-05-01T13:11:13.382Z,100424.20
2023-05-01T13:13:41.153Z,100412.75
2023-05-01T13:16:12.867Z,100415.83
2023-05-01T13:18:44.540Z,100417.84
2023-05-01T13:21:14.767Z,100410.30
2023-05-01T13:23:43.064Z,100403.17
2023-05-01T13:26:11.232Z,100401.39
2023-05-01T13:28:45.218Z,100400.95
2023-05-01T13:31:14.227Z,100399.04
2023-05-01T13:33:43.343Z,100403.20
2023-05-01T13:36:25.433Z,100402.75
2023-05-01T13:38:56.451Z,100401.72
2023-05-01T13:41:28.372Z,100400.77
2023-05-01T13:43:57.169Z,100394.19
2023-05-01T13:46:26.055Z,100383.02
2023-05-01T13:48:53.483Z,100377.95
2023-05-01T13:51:23.203Z,100365.58
2023-05-01T13:53:50.757Z,100371.64
2023-05-01T13:56:17.817Z,100367.38
2023-05-01T13:58:45.289Z,100362.63
2023-05-01T14:01:19.095Z,100362.41
2023-05-01T14:03:47.577Z,100356.90
2023-05-01T14:06:19.767Z,100352.88
2023-05-01T14:08:48.845Z,100357.98
2023-05-01T14:11:16.276Z,100353.56
2023-05-01T14:13:46.350Z,100347.02
2023-05-01T14:16:23.891Z,100357.17
2023-05-01T14:18:54.736Z,100358.27
2023-05-01T14:21:23.994Z,100353.95
2023-05-01T14:23:53.111Z,100351.64
2023-05-01T14:26:21.608Z,100347.56
2023-05-01T14:28:49.106Z,100343.33
2023-05-01T14:31:25.391Z,100336.46
2023-05-01T14:33:56.061Z,100333.82
2023-05-01T14:36:23.384Z,100328.10
2023-05-01T14:38:52.091Z,100326.69
2023-05-01T14:41:22.264Z,100324.30
2023-05-01T14:43:53.286Z,100323.61
2023-05-01T14:46:32.202Z,100321.63
2023-05-01T14:49:01.125Z,100322.60
2023-05-01T14:51:28.799Z,100315.38
2023-05-01T14:53:56.113Z,100314.98
2023-05-01T14:56:24.069Z,100314.66
2023-05-01T14:58:51.279Z,100315.05
2023-05-01T15:01:19.443Z,100314.63
2023-05-01T15:03:46.798Z,100305.34
2023-05-01T15:06:14.061Z,100305.60
2023-05-01T15:08:41.287Z,100294.24
2023-05-01T15:11:08.810Z,100291.36
2023-05-01T15:13:36.488Z,100290.92
2023-05-01T15:16:04.036Z,100288.05
2023-05-01T15:18:31.536Z,100286.82
2023-05-01T15:20:58.623Z,100292.52
2023-05-01T15:23:27.398Z,100294.50
2023-05-01T15:25:54.786Z,100289.17
2023-05-01T15:28:21.808Z,100281.66
2023-05-01T15:30:48.894Z,100280.70
2023-05-01T15:33:18.708Z,100279.65
2023-05-01T15:35:47.368Z,100277.02
2023-05-01T15:38:14.753Z,100274.91
2023-05-01T15:40:43.337Z,100267.94
2023-05-01T15:43:10.467Z,100270.79
2023-05-01T15:45:43.280Z,100276.50
2023-05-01T15:48:11.901Z,100273.40
2023-05-01T15:50:39.034Z,100271.22
2023-05-01T15:53:06.128Z,100264.70
2023-05-01T15:55:34.328Z,100264.26
2023-05-01T15:58:02.835Z,100260.95
2023-05-01T16:00:30.068Z,100257.05
2023-05-01T16:02:57.301Z,100254.58
2023-05-01T16:05:24.976Z,100250.52
2023-05-01T16:07:55.458Z,100249.30
2023-05-01T16:10:23.163Z,100247.01
2023-05-01T16:12:51.185Z,100242.55
2023-05-01T16:15:18.400Z,100235.84
2023-05-01T16:17:45.952Z,100236.42
2023-05-01T16:20:14.490Z,100236.84
2023-05-01T16:22:43.385Z,100240.31
2023-05-01T16:25:11.068Z,100238.69
2023-05-01T16:27:44.363Z,100238.81
2023-05-01T16:30:16.206Z,100232.02
2023-05-01T16:32:44.934Z,100226.43
2023-05-01T16:35:20.169Z,100230.84
2023-05-01T16:37:47.177Z,100233.05
2023-05-01T16:40:18.353Z,100231.41
2023-05-01T16:42:56.261Z,100233.96
2023-05-01T16:45:23.412Z,100233.22
2023-05-01T16:47:51.597Z,100234.45
2023-05-01T16:50:22.004Z,100228.09
2023-05-01T16:52:50.070Z,100227.85
2023-05-01T16:55:17.740Z,100228.66
2023-05-01T16:57:44.848Z,100228.52
2023-05-01T17:00:12.508Z,100230.33
2023-05-01T17:02:39.765Z,100231.73
2023-05-01T17:05:07.415Z,100231.79
2023-05-01T17:07:34.596Z,100227.19
2023-05-01T17:10:02.140Z,100225.73
2023-05-01T17:12:29.445Z,100226.11
2023-05-01T17:14:57.005Z,100226.00
2023-05-01T17:17:25.144Z,100223.36
2023-05-01T17:19:52.840Z,100221.95
2023-05-01T17:22:20.136Z,100218.16
2023-05-01T17:24:47.839Z,100215.62
2023-05-01T17:27:15.619Z,100210.92
2023-05-01T17:29:42.732Z,100209.10
2023-05-01T17:32:09.784Z,100210.27
2023-05-01T17:34:36.951Z,100205.38
2023-05-01T17:37:04.054Z,100205.30
2023-05-01T17:39:31.118Z,100201.55
2023-05-01T17:41:58.320Z,100199.20
2023-05-01T17:44:25.378Z,100201.06
2023-05-01T17:46:52.481Z,100202.75
2023-05-01T17:49:19.510Z,100194.00
2023-05-01T17:51:46.598Z,100193.34
2023-05-01T17:54:16.629Z,100190.07
2023-05-01T17:56:44.778Z,100189.48
2023-05-01T17:59:12.037Z,100193.45
2023-05-01T18:01:39.587Z,100187.25
2023-05-01T18:04:06.952Z,100186.41
2023-05-01T18:06:34.121Z,100186.91
2023-05-01T18:09:01.558Z,100187.35
2023-05-01T18:11:28.708Z,100179.22
2023-05-01T18:13:55.811Z,100177.09
2023-05-01T18:16:24.575Z,100175.84
2023-05-01T18:18:53.172Z,100171.38
2023-05-01T18:21:20.236Z,100167.86
2023-05-01T18:23:48.561Z,100175.42
2023-05-01T18:26:16.719Z,100183.83
2023-05-01T18:28:43.824Z,100187.38
2023-05-01T18:31:10.951Z,100185.13
2023-05-01T18:33:38.071Z,100186.67
2023-05-01T18:36:05.294Z,100187.77
2023-05-01T18:38:32.666Z,100183.25
2023-05-01T18:40:59.722Z,100180.87
2023-05-01T18:43:27.697Z,100179.02
2023-05-01T18:45:54.903Z,100175.76
2023-05-01T18:48:21.947Z,100179.91
2023-05-01T18:51:00.793Z,100180.17
2023-05-01T18:53:34.724Z,100178.21
2023-05-01T18:56:01.892Z,100173.73
2023-05-01T18:58:29.015Z,100172.84
2023-05-01T19:00:56.120Z,100175.80
2023-05-01T19:03:23.456Z,100176.80
2023-05-01T19:05:50.547Z,100177.80
2023-05-01T19:08:17.644Z,100170.41
2023-05-01T19:10:44.772Z,100167.91
2023-05-01T19:13:12.393Z,100166.16
2023-05-01T19:15:39.472Z,100170.30
2023-05-01T19:18:06.589Z,100169.16
2023-05-01T19:20:33.672Z,100170.51
2023-05-01T19:23:00.804Z,100170.58
2023-05-01T19:25:28.177Z,100170.11
2023-05-01T19:27:55.640Z,100168.11
2023-05-01T19:30:23.406Z,100173.97
2023-05-01T19:32:52.020Z,100174.39
2023-05-01T19:35:19.188Z,100173.91
2023-05-01T19:37:48.152Z,100171.62
2023-05-01T19:40:16.961Z,100169.71
2023-05-01T19:42:44.501Z,100166.23
2023-05-01T19:45:11.575Z,100167.22
2023-05-01T19:47:38.730Z,100165.65
2023-05-01T19:50:06.685Z,100165.55
2023-05-01T19:52:33.960Z,100167.09
2023-05-01T19:55:05.398Z,100162.80
2023-05-01T19:57:33.815Z,100164.19
2023-05-01T20:00:01.355Z,100160.54
2023-05-01T20:02:28.923Z,100157.49
2023-05-01T20:04:56.274Z,100157.63
2023-05-01T20:07:23.594Z,100152.36
2023-05-01T20:09:51.079Z,100148.62
2023-05-01T20:12:18.151Z,100148.86
2023-05-01T20:14:45.353Z,100146.77
2023-05-01T20:17:12.440Z,100140.13
2023-05-01T20:19:40.039Z,100135.77
2023-05-01T20:22:07.277Z,100135.96
2023-05-01T20:24:34.260Z,100136.10
2023-05-01T20:27:03.223Z,100130.19
2023-05-01T20:29:30.327Z,100129.69
2023-05-01T20:31:59.066Z,100129.45
2023-05-01T20:34:26.364Z,100125.30
2023-05-01T20:36:53.458Z,100124.02
2023-05-01T20:39:20.564Z,100124.02
2023-05-01T20:41:48.283Z,100118.11
2023-05-01T20:44:15.716Z,100115.55
2023-05-01T20:46:43.859Z,100114.50
2023-05-01T20:49:13.130Z,100112.99
2023-05-01T20:51:41.593Z,100109.28
2023-05-01T20:54:08.748Z,100113.19
2023-05-01T20:56:35.876Z,100112.73
2023-05-01T20:59:04.514Z,100115.65
2023-05-01T21:01:32.515Z,100110.86
2023-05-01T21:04:00.166Z,100112.63
2023-05-01T21:06:28.049Z,100113.48
2023-05-01T21:08:55.159Z,100112.70
2023-05-01T21:11:22.262Z,100110.05
2023-05-01T21:13:49.310Z,100109.87
2023-05-01T21:16:16.808Z,100107.58
2023-05-01T21:18:43.971Z,100109.30
2023-05-01T21:21:13.691Z,100108.35
2023-05-01T21:23:46.564Z,100109.31
2023-05-01T21:26:14.533Z,100111.05
2023-05-01T21:28:43.594Z,100109.19
2023-05-01T21:31:14.568Z,100105.17
2023-05-01T21:33:45.940Z,100103.34
2023-05-01T21:36:17.116Z,100104.68
2023-05-01T21:38:46.176Z,100105.08
2023-05-01T21:41:15.747Z,100105.12
2023-05-01T21:43:43.308Z,100104.31
2023-05-01T21:46:17.024Z,100103.70
2023-05-01T21:48:49.764Z,100101.83
2023-05-01T21:51:17.733Z,100102.55
2023-05-01T21:53:44.931Z,100100.60
2023-05-01T21:56:14.207Z,100102.33
2023-05-01T21:58:41.364Z,100106.05
2023-05-01T22:01:09.709Z,100106.96
2023-05-01T22:03:41.835Z,100102.59
2023-05-01T22:06:09.182Z,100105.19
2023-05-01T22:08:36.445Z,100103.34
2023-05-01T22:11:04.392Z,100104.88
2023-05-01T22:13:33.762Z,100101.92
2023-05-01T22:16:01.052Z,100097.01
2023-05-01T22:18:29.262Z,100100.35
2023-05-01T22:20:56.313Z,100098.36
2023-05-01T22:23:23.412Z,100096.56
2023-05-01T22:25:50.715Z,100098.84
2023-05-01T22:28:18.122Z,100099.85
2023-05-01T22:30:46.458Z,100096.52
2023-05-01T22:33:13.609Z,100095.67
2023-05-01T22:35:40.738Z,100097.54
2023-05-01T22:38:08.375Z,100093.45
2023-05-01T22:40:36.036Z,100090.57
2023-05-01T22:43:05.241Z,100092.64
2023-05-01T22:45:32.265Z,100088.40
2023-05-01T22:47:59.388Z,100088.90
2023-05-01T22:50:26.524Z,100083.20
2023-05-01T22:52:53.692Z,100082.12
2023-05-01T22:55:21.113Z,100077.27
2023-05-01T22:57:48.234Z,100077.42
2023-05-01T23:00:15.541Z,100077.08
2023-05-01T23:02:42.698Z,100076.45
2023-05-01T23:05:11.501Z,100072.75
2023-05-01T23:07:38.744Z,100069.09
2023-05-01T23:10:06.397Z,100068.50
2023-05-01T23:12:33.543Z,100062.81
2023-05-01T23:15:00.732Z,100057.93
2023-05-01T23:17:35.281Z,100059.92
2023-05-01T23:20:02.653Z,100057.30
2023-05-01T23:22:30.309Z,100052.44
2023-05-01T23:24:57.523Z,100047.58
2023-05-01T23:27:24.641Z,100043.85
2023-05-01T23:29:57.443Z,100042.52
2023-05-01T23:32:27.952Z,100041.91
2023-05-01T23:35:00.036Z,100041.23
2023-05-01T23:37:27.232Z,100037.27
2023-05-01T23:39:54.596Z,100034.01
2023-05-01T23:42:22.578Z,100029.16
2023-05-01T23:44:50.182Z,100027.34
2023-05-01T23:47:17.429Z,100027.49
2023-05-01T23:49:44.584Z,100021.64
2023-05-01T23:52:11.737Z,100019.10
2023-05-01T23:54:38.931Z,100019.23
2023-05-01T23:57:06.074Z,100015.61
2023-05-01T23:59:33.771Z,100009.30
